CheckWX is a tool to help pilots better visualize weather data.  It is not intended as a substitute for an official pre-flight weather briefing.

14:55:36 UTC

GMMC METAR
Anfa Airport
Casablanca, Morocco
Current

56 mins ago

GMMC 221400Z 30018KT 9999 FEW016TCU SCT200 20/13 Q1008
Observed
Apr-22 @ 14:00 UTC
Wind
  • 300° at 18 KTS
Visibility
10,000+ meters
Flight Rules
VFR
Cloud Levels
  • Few at 1,600' AGL
  • Scattered at 20,000' AGL
Temperature
20°C / 68°F
Dewpoint
13°C / 55°F
Humidity
64%
Altimeter
29.76" Hg
Pressure
1007.92 hPa
Previous

2 hours ago

GMMC 221300Z 28014KT 9999 SCT016TCU SCT200 20/12 Q1009
Observed
Apr-22 @ 13:00 UTC
Wind
  • 280° at 14 KTS
Visibility
10,000+ meters
Flight Rules
VFR
Cloud Levels
  • Scattered at 1,600' AGL
  • Scattered at 20,000' AGL
Temperature
20°C / 68°F
Dewpoint
12°C / 54°F
Humidity
60%
Altimeter
29.79" Hg
Pressure
1008.92 hPa
Previous

3 hours ago

GMMC 221200Z 30010KT 9999 SCT016TCU 21/13 Q1009
Observed
Apr-22 @ 12:00 UTC
Wind
  • 300° at 10 KTS
Visibility
10,000+ meters
Flight Rules
VFR
Cloud Levels
  • Scattered at 1,600' AGL
Temperature
21°C / 70°F
Dewpoint
13°C / 55°F
Humidity
60%
Altimeter
29.79" Hg
Pressure
1008.92 hPa